createdAt,value
2018-08-10T00:01:46.628Z,81.08
2018-08-10T00:04:13.639Z,80.95
2018-08-10T00:06:40.923Z,80.27
2018-08-10T00:09:09.610Z,79.92
2018-08-10T00:11:36.593Z,81.02
2018-08-10T00:14:03.672Z,80.25
2018-08-10T00:16:30.640Z,80.74
2018-08-10T00:18:57.688Z,82.35
2018-08-10T00:21:25.049Z,83.17
2018-08-10T00:23:52.121Z,83.00
2018-08-10T00:26:19.179Z,83.30
2018-08-10T00:28:46.243Z,83.66
2018-08-10T00:31:13.231Z,83.17
2018-08-10T00:33:40.359Z,81.08
2018-08-10T00:36:07.392Z,81.52
2018-08-10T00:38:34.382Z,81.29
2018-08-10T00:41:01.463Z,80.11
2018-08-10T00:43:28.470Z,79.36
2018-08-10T00:45:55.532Z,78.63
2018-08-10T00:48:22.571Z,78.64
2018-08-10T00:50:49.699Z,79.16
2018-08-10T00:53:16.784Z,79.28
2018-08-10T00:55:43.884Z,80.23
2018-08-10T00:58:10.886Z,79.74
2018-08-10T01:00:37.904Z,80.39
2018-08-10T01:03:05.007Z,80.19
2018-08-10T01:05:32.159Z,78.85
2018-08-10T01:07:59.227Z,79.24
2018-08-10T01:10:26.222Z,79.01
2018-08-10T01:12:53.248Z,79.50
2018-08-10T01:15:20.267Z,80.59
2018-08-10T01:17:47.367Z,80.20
2018-08-10T01:20:18.603Z,79.46
2018-08-10T01:22:51.341Z,79.69
2018-08-10T01:25:19.531Z,79.63
2018-08-10T01:27:52.431Z,78.54
2018-08-10T01:30:19.426Z,79.58
2018-08-10T01:32:46.448Z,79.30
2018-08-10T01:35:13.479Z,79.37
2018-08-10T01:37:40.503Z,79.74
2018-08-10T01:40:08.064Z,79.48
2018-08-10T01:42:35.453Z,79.16
2018-08-10T01:45:02.520Z,78.55
2018-08-10T01:47:29.595Z,78.57
2018-08-10T01:49:56.710Z,78.54
2018-08-10T01:52:23.888Z,78.53
2018-08-10T01:54:50.883Z,78.24
2018-08-10T01:57:17.928Z,77.77
2018-08-10T01:59:44.915Z,78.02
2018-08-10T02:02:11.924Z,78.04
2018-08-10T02:04:39.086Z,78.69
2018-08-10T02:07:06.094Z,78.96
2018-08-10T02:09:33.077Z,78.92
2018-08-10T02:12:00.171Z,79.34
2018-08-10T02:14:27.228Z,79.16
2018-08-10T02:16:54.321Z,77.74
2018-08-10T02:19:21.294Z,77.32
2018-08-10T02:21:48.317Z,77.00
2018-08-10T02:24:15.627Z,77.47
2018-08-10T02:26:42.645Z,78.74
2018-08-10T02:29:09.823Z,78.59
2018-08-10T02:31:36.911Z,79.20
2018-08-10T02:34:03.956Z,79.30
2018-08-10T02:36:31.068Z,79.76
2018-08-10T02:38:58.072Z,79.62
2018-08-10T02:41:25.063Z,79.58
2018-08-10T02:43:52.048Z,80.29
2018-08-10T02:46:19.083Z,80.27
2018-08-10T02:48:46.176Z,79.14
2018-08-10T02:51:13.226Z,77.85
2018-08-10T02:53:40.275Z,77.21
2018-08-10T02:56:07.312Z,77.91
2018-08-10T02:58:34.312Z,77.91
2018-08-10T03:01:01.647Z,77.11
2018-08-10T03:03:28.656Z,77.79
2018-08-10T03:05:55.635Z,78.53
2018-08-10T03:08:22.891Z,78.07
2018-08-10T03:10:49.867Z,77.73
2018-08-10T03:13:16.933Z,78.36
2018-08-10T03:15:44.051Z,79.22
2018-08-10T03:18:11.047Z,78.58
2018-08-10T03:20:38.055Z,78.48
2018-08-10T03:23:05.283Z,78.44
2018-08-10T03:25:32.275Z,79.38
2018-08-10T03:27:59.249Z,79.27
2018-08-10T03:30:26.253Z,80.04
2018-08-10T03:32:53.259Z,80.51
2018-08-10T03:35:20.259Z,81.01
2018-08-10T03:37:47.275Z,80.45
2018-08-10T03:40:15.131Z,80.82
2018-08-10T03:42:42.159Z,80.88
2018-08-10T03:45:09.624Z,81.33
2018-08-10T03:47:36.684Z,80.95
2018-08-10T03:50:04.929Z,81.24
2018-08-10T03:52:31.931Z,81.49
2018-08-10T03:54:58.996Z,82.21
2018-08-10T03:57:26.019Z,81.63
2018-08-10T03:59:53.155Z,81.26
2018-08-10T04:02:20.331Z,81.88
2018-08-10T04:04:47.324Z,83.06
2018-08-10T04:07:14.381Z,82.96
2018-08-10T04:09:41.391Z,82.84
2018-08-10T04:12:08.455Z,83.56
2018-08-10T04:14:35.471Z,82.91
2018-08-10T04:17:02.459Z,83.42
2018-08-10T04:19:29.464Z,83.47
2018-08-10T04:21:56.527Z,83.63
2018-08-10T04:24:23.666Z,83.99
2018-08-10T04:26:50.696Z,84.64
2018-08-10T04:29:17.746Z,84.12
2018-08-10T04:31:44.742Z,84.65
2018-08-10T04:34:11.748Z,84.13
2018-08-10T04:36:38.776Z,85.18
2018-08-10T04:39:08.547Z,85.01
2018-08-10T04:41:35.535Z,84.73
2018-08-10T04:44:02.547Z,85.05
2018-08-10T04:46:29.539Z,85.29
2018-08-10T04:48:56.508Z,84.75
2018-08-10T04:51:23.683Z,85.11
2018-08-10T04:53:50.697Z,83.74
2018-08-10T04:56:17.814Z,82.42
2018-08-10T04:58:45.028Z,81.39
2018-08-10T05:01:12.015Z,80.99
2018-08-10T05:03:39.022Z,80.40
2018-08-10T05:06:06.039Z,80.16
2018-08-10T05:08:33.078Z,79.83
2018-08-10T05:11:00.126Z,79.34
2018-08-10T05:13:27.164Z,79.31
2018-08-10T05:15:54.188Z,79.38
2018-08-10T05:18:22.675Z,79.87
2018-08-10T05:20:49.739Z,80.12
2018-08-10T05:23:23.804Z,80.49
2018-08-10T05:25:50.930Z,80.42
2018-08-10T05:28:17.989Z,80.93
2018-08-10T05:30:45.012Z,81.18
2018-08-10T05:33:12.410Z,81.87
2018-08-10T05:35:39.490Z,81.33
2018-08-10T05:38:06.867Z,81.51
2018-08-10T05:40:33.982Z,80.87
2018-08-10T05:43:01.032Z,80.65
2018-08-10T05:45:28.079Z,80.99
2018-08-10T05:47:55.071Z,81.71
2018-08-10T05:50:22.083Z,81.54
2018-08-10T05:52:49.391Z,81.80
2018-08-10T05:55:16.711Z,81.32
2018-08-10T05:57:43.752Z,81.92
2018-08-10T06:00:10.844Z,81.99
2018-08-10T06:02:37.978Z,82.11
2018-08-10T06:05:05.643Z,82.13
2018-08-10T06:07:32.728Z,82.36
2018-08-10T06:09:59.995Z,81.84
2018-08-10T06:12:27.215Z,82.58
2018-08-10T06:14:54.212Z,81.24
2018-08-10T06:17:21.218Z,81.05
2018-08-10T06:19:48.664Z,81.58
2018-08-10T06:22:15.660Z,81.54
2018-08-10T06:24:42.678Z,81.60
2018-08-10T06:27:09.782Z,81.21
2018-08-10T06:29:36.807Z,81.61
2018-08-10T06:32:03.827Z,81.63
2018-08-10T06:34:31.063Z,81.17
2018-08-10T06:36:58.120Z,80.59
2018-08-10T06:39:25.373Z,80.81
2018-08-10T06:41:52.447Z,80.63
2018-08-10T06:44:19.941Z,80.04
2018-08-10T06:46:47.013Z,79.35
2018-08-10T06:49:14.350Z,79.47
2018-08-10T06:51:41.335Z,78.53
2018-08-10T06:54:08.348Z,78.05
2018-08-10T06:56:35.363Z,77.35
2018-08-10T06:59:02.392Z,77.75
2018-08-10T07:01:29.417Z,77.94
2018-08-10T07:03:56.523Z,77.34
2018-08-10T07:06:23.508Z,77.93
2018-08-10T07:08:50.984Z,78.54
2018-08-10T07:11:18.364Z,76.37
2018-08-10T07:13:45.726Z,75.80
2018-08-10T07:16:12.724Z,75.76
2018-08-10T07:18:39.875Z,75.91
2018-08-10T07:21:06.910Z,75.48
2018-08-10T07:23:33.885Z,74.71
2018-08-10T07:26:00.963Z,74.67
2018-08-10T07:28:28.210Z,75.16
2018-08-10T07:30:55.200Z,73.72
2018-08-10T07:33:22.423Z,73.88
2018-08-10T07:35:49.519Z,72.46
2018-08-10T07:38:16.706Z,72.13
2018-08-10T07:40:44.148Z,73.69
2018-08-10T07:43:11.323Z,73.72
2018-08-10T07:45:38.591Z,73.37
2018-08-10T07:48:05.675Z,73.92
2018-08-10T07:50:32.799Z,73.71
2018-08-10T07:52:59.937Z,72.91
2018-08-10T07:55:26.967Z,73.14
2018-08-10T07:57:54.156Z,72.14
2018-08-10T08:00:21.205Z,72.38
2018-08-10T08:02:48.660Z,72.92
2018-08-10T08:05:15.995Z,71.32
2018-08-10T08:07:43.091Z,71.31
2018-08-10T08:10:10.129Z,69.96
2018-08-10T08:12:37.179Z,69.98
2018-08-10T08:15:04.582Z,69.95
2018-08-10T08:17:31.591Z,68.03
2018-08-10T08:19:58.709Z,68.03
2018-08-10T08:22:25.715Z,68.35
2018-08-10T08:24:52.708Z,67.08
2018-08-10T08:27:20.027Z,67.14
2018-08-10T08:29:47.103Z,66.75
2018-08-10T08:32:14.155Z,66.92
2018-08-10T08:34:41.268Z,67.14
2018-08-10T08:37:08.829Z,65.67
2018-08-10T08:40:46.757Z,66.32
2018-08-10T08:43:14.482Z,66.82
2018-08-10T08:45:46.994Z,65.51
2018-08-10T08:48:13.825Z,64.00
2018-08-10T08:50:42.175Z,63.31
2018-08-10T08:53:09.223Z,63.67
2018-08-10T08:55:38.659Z,63.52
2018-08-10T08:58:05.983Z,60.74
2018-08-10T09:00:33.027Z,60.72
2018-08-10T09:03:00.487Z,61.93
2018-08-10T09:05:27.607Z,62.06
2018-08-10T09:07:54.670Z,60.68
2018-08-10T09:10:21.823Z,61.42
2018-08-10T09:12:48.835Z,60.68
2018-08-10T09:15:17.680Z,60.34
2018-08-10T09:17:44.741Z,61.14
2018-08-10T09:20:11.884Z,61.44
2018-08-10T09:22:38.979Z,61.72
2018-08-10T09:25:07.803Z,63.56
2018-08-10T09:27:34.852Z,63.45
2018-08-10T09:30:01.843Z,61.95
2018-08-10T09:32:28.857Z,62.19
2018-08-10T09:34:55.859Z,62.85
2018-08-10T09:37:22.909Z,63.30
2018-08-10T09:39:50.016Z,63.82
2018-08-10T09:42:17.112Z,61.54
2018-08-10T09:44:44.067Z,59.03
2018-08-10T09:47:11.244Z,57.66
2018-08-10T09:49:41.091Z,56.72
2018-08-10T09:52:08.128Z,55.78
2018-08-10T09:54:47.002Z,56.24
2018-08-10T09:57:14.534Z,54.58
2018-08-10T09:59:41.553Z,55.78
2018-08-10T10:02:13.415Z,55.36
2018-08-10T10:04:40.411Z,55.49
2018-08-10T10:07:07.469Z,55.61
2018-08-10T10:09:35.475Z,56.41
2018-08-10T10:12:02.607Z,55.63
2018-08-10T10:14:29.631Z,54.53
2018-08-10T10:16:56.681Z,54.98
2018-08-10T10:19:23.695Z,53.97
2018-08-10T10:21:50.709Z,54.10
2018-08-10T10:24:17.830Z,54.94
2018-08-10T10:26:44.897Z,52.34
2018-08-10T10:29:11.964Z,51.25
2018-08-10T10:31:38.995Z,50.40
2018-08-10T10:34:06.015Z,51.27
2018-08-10T10:36:33.035Z,50.60
2018-08-10T10:39:00.335Z,49.40
2018-08-10T10:41:27.362Z,49.29
2018-08-10T10:43:54.335Z,48.58
2018-08-10T10:46:21.420Z,50.46
2018-08-10T10:48:48.428Z,50.59
2018-08-10T10:51:15.523Z,52.34
2018-08-10T10:53:42.907Z,52.53
2018-08-10T10:56:09.978Z,52.77
2018-08-10T10:58:36.928Z,52.44
2018-08-10T11:01:04.148Z,51.37
2018-08-10T11:03:31.144Z,51.96
2018-08-10T11:05:58.177Z,52.36
2018-08-10T11:08:25.236Z,52.52
2018-08-10T11:10:52.229Z,52.80
2018-08-10T11:13:26.522Z,52.44
2018-08-10T11:15:53.511Z,52.60
2018-08-10T11:18:20.511Z,52.76
2018-08-10T11:20:48.107Z,53.31
2018-08-10T11:23:15.105Z,53.32
2018-08-10T11:25:42.220Z,51.80
2018-08-10T11:28:09.142Z,52.58
2018-08-10T11:30:36.145Z,51.91
2018-08-10T11:33:03.177Z,52.08
2018-08-10T11:35:30.199Z,53.45
2018-08-10T11:37:57.243Z,50.81
2018-08-10T11:40:24.293Z,52.45
2018-08-10T11:42:51.340Z,51.76
2018-08-10T11:45:18.380Z,51.06
2018-08-10T11:47:45.407Z,50.65
2018-08-10T11:50:12.504Z,52.18
2018-08-10T11:52:39.526Z,50.55
2018-08-10T11:55:08.165Z,48.89
2018-08-10T11:57:35.139Z,49.36
2018-08-10T12:00:02.350Z,49.70
2018-08-10T12:02:29.324Z,49.80
2018-08-10T12:04:56.419Z,49.39
2018-08-10T12:07:23.388Z,49.78
2018-08-10T12:09:50.449Z,49.07
2018-08-10T12:12:17.510Z,48.47
2018-08-10T12:14:44.505Z,50.18
2018-08-10T12:17:11.511Z,49.55
2018-08-10T12:19:38.807Z,50.34
2018-08-10T12:22:05.880Z,48.36
2018-08-10T12:24:33.108Z,48.28
2018-08-10T12:27:00.167Z,48.75
2018-08-10T12:29:27.483Z,47.47
2018-08-10T12:31:54.478Z,44.48
2018-08-10T12:34:21.524Z,45.20
2018-08-10T12:36:48.560Z,46.81
2018-08-10T12:39:15.715Z,46.67
2018-08-10T12:41:42.832Z,48.76
2018-08-10T12:44:10.051Z,47.67
2018-08-10T12:46:37.344Z,47.23
2018-08-10T12:49:04.327Z,46.22
2018-08-10T12:51:31.341Z,44.59
2018-08-10T12:53:58.674Z,45.33
2018-08-10T12:56:25.809Z,43.73
2018-08-10T12:58:52.835Z,43.11
2018-08-10T13:01:19.847Z,41.15
2018-08-10T13:03:46.850Z,38.96
2018-08-10T13:06:13.839Z,38.84
2018-08-10T13:08:40.856Z,38.17
2018-08-10T13:11:07.958Z,37.95
2018-08-10T13:13:34.951Z,37.16
2018-08-10T13:16:01.968Z,37.41
2018-08-10T13:18:29.005Z,36.80
2018-08-10T13:20:56.041Z,36.73
2018-08-10T13:23:23.072Z,35.19
2018-08-10T13:25:50.135Z,35.96
2018-08-10T13:28:17.141Z,36.57
2018-08-10T13:30:44.183Z,35.86
2018-08-10T13:33:11.321Z,36.01
2018-08-10T13:35:38.333Z,35.53
2018-08-10T13:38:06.268Z,35.27
2018-08-10T13:40:33.340Z,37.65
2018-08-10T13:43:00.355Z,37.66
2018-08-10T13:45:27.431Z,37.50
2018-08-10T13:47:54.563Z,37.89
2018-08-10T13:50:21.658Z,37.83
2018-08-10T13:52:48.674Z,36.56
2018-08-10T13:55:17.294Z,36.59
2018-08-10T13:57:44.876Z,35.43
2018-08-10T14:00:17.744Z,35.25
2018-08-10T14:02:44.783Z,35.21
2018-08-10T14:05:12.140Z,36.07
2018-08-10T14:07:40.230Z,37.21
2018-08-10T14:10:07.287Z,37.94
2018-08-10T14:12:34.331Z,39.15
2018-08-10T14:15:01.319Z,39.39
2018-08-10T14:17:28.328Z,40.36
2018-08-10T14:19:55.364Z,40.93
2018-08-10T14:22:22.388Z,42.90
2018-08-10T14:24:49.478Z,42.63
2018-08-10T14:27:16.788Z,43.44
2018-08-10T14:29:43.784Z,44.02
2018-08-10T14:32:10.785Z,45.65
2018-08-10T14:34:37.799Z,46.28
2018-08-10T14:37:04.815Z,46.71
2018-08-10T14:39:31.800Z,44.46
2018-08-10T14:41:58.888Z,44.81
2018-08-10T14:44:25.870Z,44.76
2018-08-10T14:46:52.993Z,44.41
2018-08-10T14:49:19.956Z,44.33
2018-08-10T14:51:46.964Z,43.76
2018-08-10T14:54:13.975Z,43.02
2018-08-10T14:56:40.967Z,43.24
2018-08-10T14:59:08.035Z,43.52
2018-08-10T15:01:35.754Z,43.83
2018-08-10T15:04:02.803Z,43.68
2018-08-10T15:06:29.827Z,44.54
2018-08-10T15:08:56.896Z,43.02
2018-08-10T15:11:23.895Z,43.37
2018-08-10T15:13:50.876Z,43.20
2018-08-10T15:16:18.316Z,43.40
2018-08-10T15:18:45.532Z,44.45
2018-08-10T15:21:12.909Z,43.85
2018-08-10T15:23:39.920Z,43.18
2018-08-10T15:26:07.319Z,42.81
2018-08-10T15:28:34.483Z,46.94
2018-08-10T15:31:01.593Z,51.23
2018-08-10T15:33:29.408Z,52.79
2018-08-10T15:35:56.480Z,53.86
2018-08-10T15:38:24.021Z,55.46
2018-08-10T15:40:50.964Z,55.45
2018-08-10T15:43:18.043Z,53.89
2018-08-10T15:45:45.059Z,54.96
2018-08-10T15:48:12.366Z,54.22
2018-08-10T15:50:39.683Z,54.49
2018-08-10T15:53:07.297Z,55.23
2018-08-10T15:55:34.357Z,56.75
2018-08-10T15:58:01.845Z,56.15
2018-08-10T16:00:28.891Z,57.65
2018-08-10T16:02:56.244Z,57.05
2018-08-10T16:05:23.437Z,56.14
2018-08-10T16:07:50.439Z,56.10
2018-08-10T16:10:17.483Z,57.33
2018-08-10T16:12:45.184Z,57.87
2018-08-10T16:15:16.492Z,57.32
2018-08-10T16:17:43.495Z,58.92
2018-08-10T16:20:12.472Z,58.96
2018-08-10T16:22:39.477Z,58.63
2018-08-10T16:25:07.951Z,58.48
2018-08-10T16:27:35.718Z,57.27
2018-08-10T16:30:02.847Z,58.57
2018-08-10T16:32:30.024Z,57.06
2018-08-10T16:34:57.111Z,55.66
2018-08-10T16:37:24.144Z,56.81
2018-08-10T16:39:51.500Z,56.88
2018-08-10T16:42:18.667Z,56.55
2018-08-10T16:44:45.747Z,55.60
2018-08-10T16:47:12.782Z,57.68
2018-08-10T16:49:39.855Z,56.19
2018-08-10T16:52:06.913Z,58.03
2018-08-10T16:54:34.191Z,57.52
2018-08-10T16:57:01.481Z,57.41
2018-08-10T16:59:28.533Z,56.87
2018-08-10T17:01:55.547Z,57.23
2018-08-10T17:04:22.991Z,56.20
2018-08-10T17:06:49.988Z,57.40
2018-08-10T17:09:16.964Z,59.50
2018-08-10T17:11:44.383Z,57.53
2018-08-10T17:14:11.507Z,58.20
2018-08-10T17:16:39.004Z,58.13
2018-08-10T17:19:06.155Z,58.47
2018-08-10T17:25:12.938Z,58.53
2018-08-10T17:27:47.471Z,59.00
2018-08-10T17:30:16.497Z,57.13
2018-08-10T17:32:43.884Z,58.13
2018-08-10T17:35:12.441Z,57.57
2018-08-10T17:37:40.186Z,58.04
2018-08-10T17:40:08.049Z,56.81
2018-08-10T17:42:35.200Z,55.92
2018-08-10T17:45:33.471Z,55.81
2018-08-10T17:48:00.464Z,55.28
2018-08-10T17:50:27.443Z,54.46
2018-08-10T17:52:54.511Z,55.10
2018-08-10T17:55:22.936Z,53.74
2018-08-10T17:57:50.052Z,53.51
2018-08-10T18:00:20.362Z,55.95
2018-08-10T18:02:48.243Z,56.58
2018-08-10T18:05:17.247Z,60.89
2018-08-10T18:07:44.983Z,57.90
2018-08-10T18:10:12.979Z,58.72
2018-08-10T18:12:40.860Z,55.91
2018-08-10T18:15:10.428Z,60.33
2018-08-10T18:17:38.707Z,56.09
2018-08-10T18:20:08.207Z,55.88
2018-08-10T18:22:35.336Z,56.22
2018-08-10T18:25:02.759Z,58.92
2018-08-10T18:27:29.859Z,57.89
2018-08-10T18:29:56.815Z,57.19
2018-08-10T18:32:23.840Z,58.91
2018-08-10T18:34:50.835Z,59.12
2018-08-10T18:37:17.958Z,58.25
2018-08-10T18:39:44.959Z,59.56
2018-08-10T18:42:12.636Z,57.79
2018-08-10T18:44:39.844Z,59.99
2018-08-10T18:47:06.901Z,59.57
2018-08-10T18:49:33.986Z,58.96
2018-08-10T18:52:01.032Z,59.67
2018-08-10T18:54:28.753Z,60.17
2018-08-10T18:56:55.848Z,61.21
2018-08-10T18:59:22.927Z,59.98
2018-08-10T19:01:50.001Z,60.38
2018-08-10T19:04:17.207Z,59.88
2018-08-10T19:06:45.280Z,60.82
2018-08-10T19:09:12.504Z,61.21
2018-08-10T19:11:39.725Z,60.60
2018-08-10T19:14:06.831Z,63.25
2018-08-10T19:16:34.439Z,62.42
2018-08-10T19:19:01.535Z,62.53
2018-08-10T19:21:28.883Z,62.93
2018-08-10T19:23:55.984Z,63.98
2018-08-10T19:26:23.095Z,63.67
2018-08-10T19:36:36.675Z,65.22
2018-08-10T19:42:37.259Z,66.56
2018-08-10T19:52:13.048Z,71.42
2018-08-10T19:54:40.128Z,70.47
2018-08-10T19:57:07.143Z,71.87
2018-08-10T19:59:34.204Z,71.72
2018-08-10T20:02:01.290Z,72.46
2018-08-10T20:04:28.984Z,71.46
2018-08-10T20:06:56.296Z,72.68
2018-08-10T20:09:23.351Z,71.69
2018-08-10T20:11:50.435Z,71.67
2018-08-10T20:14:17.572Z,71.33
2018-08-10T20:16:44.576Z,72.86
2018-08-10T20:19:11.605Z,72.31
2018-08-10T20:21:39.198Z,72.11
2018-08-10T20:24:06.299Z,71.40
2018-08-10T20:26:33.339Z,73.34
2018-08-10T20:29:00.632Z,74.55
2018-08-10T20:31:28.509Z,73.06
2018-08-10T20:33:55.876Z,74.19
2018-08-10T20:36:22.999Z,73.63
2018-08-10T20:38:50.038Z,72.83
2018-08-10T20:41:17.276Z,73.33
2018-08-10T20:43:45.097Z,72.71
2018-08-10T20:46:12.540Z,72.60
2018-08-10T20:48:39.600Z,73.65
2018-08-10T20:51:06.992Z,74.23
2018-08-10T20:53:34.047Z,74.91
2018-08-10T20:56:01.105Z,74.41
2018-08-10T20:58:28.652Z,74.18
2018-08-10T21:00:55.915Z,74.72
2018-08-10T21:03:22.938Z,75.82
2018-08-10T21:05:50.233Z,75.15
2018-08-10T21:08:17.517Z,75.41
2018-08-10T21:10:44.886Z,75.20
2018-08-10T21:13:12.291Z,75.91
2018-08-10T21:15:39.501Z,75.68
2018-08-10T21:18:06.532Z,75.37
2018-08-10T21:20:33.683Z,76.44
2018-08-10T21:23:00.691Z,76.85
2018-08-10T21:25:27.779Z,76.33
2018-08-10T21:27:55.209Z,75.51
2018-08-10T21:30:22.279Z,76.14
2018-08-10T21:32:49.346Z,75.87
2018-08-10T21:35:16.477Z,76.92
2018-08-10T21:37:44.294Z,77.45
2018-08-10T21:40:11.905Z,77.89
2018-08-10T21:42:39.792Z,78.20
2018-08-10T21:45:07.155Z,78.48
2018-08-10T21:47:34.300Z,78.47
2018-08-10T21:50:01.610Z,78.98
2018-08-10T21:52:28.956Z,78.56
2018-08-10T21:54:56.026Z,78.60
2018-08-10T21:57:23.028Z,78.42
2018-08-10T21:59:50.048Z,79.10
2018-08-10T22:02:17.713Z,80.11
2018-08-10T22:04:44.768Z,79.71
2018-08-10T22:07:11.794Z,79.97
2018-08-10T22:09:39.837Z,80.37
2018-08-10T22:12:06.886Z,80.94
2018-08-10T22:14:39.728Z,81.01
2018-08-10T22:17:12.423Z,81.33
2018-08-10T22:19:39.572Z,80.99
2018-08-10T22:22:06.787Z,80.16
2018-08-10T22:24:33.981Z,80.57
2018-08-10T22:27:01.045Z,80.61
2018-08-10T22:29:28.121Z,81.00
2018-08-10T22:31:55.177Z,80.76
2018-08-10T22:34:22.176Z,80.94
2018-08-10T22:36:49.220Z,81.98
2018-08-10T22:39:16.264Z,81.87
2018-08-10T22:41:43.308Z,82.20
2018-08-10T22:44:10.365Z,82.04
2018-08-10T22:46:37.415Z,81.36
2018-08-10T22:49:04.507Z,82.84
2018-08-10T22:51:31.603Z,83.19
2018-08-10T22:53:58.667Z,82.77
2018-08-10T22:56:25.734Z,82.66
2018-08-10T22:58:52.779Z,82.24
2018-08-10T23:01:20.189Z,81.30
2018-08-10T23:03:47.342Z,82.44
2018-08-10T23:06:14.476Z,82.74
2018-08-10T23:08:41.631Z,82.46
2018-08-10T23:11:08.575Z,82.52
2018-08-10T23:13:35.655Z,80.89
2018-08-10T23:16:02.774Z,82.57
2018-08-10T23:18:29.977Z,82.74
2018-08-10T23:20:57.025Z,83.11
2018-08-10T23:23:24.085Z,82.84
2018-08-10T23:25:51.105Z,82.38
2018-08-10T23:28:18.147Z,83.02
2018-08-10T23:30:45.203Z,83.07
2018-08-10T23:33:12.324Z,82.59
2018-08-10T23:35:39.378Z,81.88
2018-08-10T23:38:06.443Z,82.20
2018-08-10T23:40:33.558Z,83.77
2018-08-10T23:43:00.641Z,83.58
2018-08-10T23:45:27.742Z,83.66
2018-08-10T23:47:54.808Z,84.01
2018-08-10T23:50:21.879Z,84.22
2018-08-10T23:52:48.926Z,84.24
2018-08-10T23:55:17.559Z,84.17
2018-08-10T23:57:44.644Z,83.92
